createdAt,value
2019-05-17T04:06:37.537Z,120.00
2019-05-17T05:23:02.342Z,376.00
2019-05-17T05:26:59.022Z,304.00
2019-05-17T05:27:59.001Z,372.00
2019-05-17T05:29:58.993Z,404.00
2019-05-17T05:31:01.642Z,420.00
2019-05-17T05:32:58.953Z,372.00
2019-05-17T05:33:58.942Z,380.00
2019-05-17T05:34:58.923Z,440.00
2019-05-17T05:37:58.898Z,428.00
2019-05-17T05:39:58.889Z,372.00
2019-05-17T05:45:22.525Z,412.00
2019-05-17T05:48:22.304Z,428.00
2019-05-17T05:52:22.300Z,440.00
2019-05-17T05:59:22.523Z,340.00
2019-05-17T06:00:22.242Z,324.00
2019-05-17T06:03:22.579Z,344.00
2019-05-17T06:09:22.389Z,432.00
2019-05-17T06:12:27.699Z,484.00
2019-05-17T06:15:44.862Z,424.00
2019-05-17T06:16:47.607Z,400.00
2019-05-17T06:17:48.068Z,392.00
2019-05-17T06:19:44.881Z,328.00
2019-05-17T06:20:44.926Z,288.00
2019-05-17T06:22:44.800Z,272.00
2019-05-17T06:23:44.815Z,284.00
2019-05-17T06:24:44.785Z,308.00
2019-05-17T06:25:44.779Z,320.00
2019-05-17T06:26:44.680Z,324.00
2019-05-17T06:27:44.680Z,360.00
2019-05-17T06:28:44.657Z,348.00
2019-05-17T06:29:44.643Z,360.00
2019-05-17T06:30:44.628Z,412.00
2019-05-17T06:31:44.607Z,432.00
2019-05-17T06:32:44.604Z,396.00
2019-05-17T06:33:44.576Z,316.00
2019-05-17T06:34:44.619Z,328.00
2019-05-17T06:35:44.593Z,376.00
2019-05-17T06:36:44.550Z,372.00
2019-05-17T06:38:44.538Z,372.00
2019-05-17T06:39:44.576Z,460.00
2019-05-17T06:40:44.535Z,520.00
2019-05-17T06:41:44.562Z,428.00
2019-05-17T06:42:45.715Z,376.00
2019-05-17T06:43:44.465Z,436.00
2019-05-17T06:44:44.580Z,428.00
2019-05-17T06:45:44.440Z,424.00
2019-05-17T06:46:44.442Z,408.00
2019-05-17T06:47:44.651Z,388.00
2019-05-17T06:48:44.403Z,420.00
2019-05-17T06:49:44.472Z,428.00
2019-05-17T06:50:44.398Z,420.00
2019-05-17T06:51:44.377Z,456.00
2019-05-17T06:52:44.367Z,380.00
2019-05-17T06:53:47.370Z,304.00
2019-05-17T06:54:44.353Z,312.00
2019-05-17T06:55:44.426Z,328.00
2019-05-17T06:56:44.519Z,372.00
2019-05-17T06:57:44.414Z,352.00
2019-05-17T06:58:44.405Z,356.00
2019-05-17T06:59:53.449Z,352.00
2019-05-17T07:01:11.743Z,320.00
2019-05-17T07:02:11.533Z,356.00
2019-05-17T07:03:12.510Z,388.00
2019-05-17T07:04:11.494Z,376.00
2019-05-17T07:05:12.628Z,352.00
2019-05-17T07:06:12.031Z,332.00
2019-05-17T07:07:12.461Z,344.00
2019-05-17T07:08:12.466Z,372.00
2019-05-17T07:09:19.495Z,352.00
2019-05-17T07:10:34.260Z,432.00
2019-05-17T07:11:34.213Z,340.00
2019-05-17T07:12:34.222Z,320.00
2019-05-17T07:13:39.565Z,364.00
2019-05-17T07:14:34.173Z,388.00
2019-05-17T07:15:43.660Z,404.00
2019-05-17T07:16:59.474Z,384.00
2019-05-17T07:17:59.943Z,392.00
2019-05-17T07:18:59.592Z,468.00
2019-05-17T07:19:59.532Z,440.00
2019-05-17T07:20:57.042Z,376.00
2019-05-17T07:21:57.109Z,444.00
2019-05-17T07:22:57.004Z,536.00
2019-05-17T07:23:59.246Z,484.00
2019-05-17T07:24:56.987Z,456.00
2019-05-17T07:25:56.939Z,480.00
2019-05-17T07:26:59.119Z,552.00
2019-05-17T07:27:56.912Z,664.00
2019-05-17T07:28:59.141Z,624.00
2019-05-17T07:29:59.114Z,652.00
2019-05-17T07:31:16.673Z,760.00
2019-05-17T09:31:41.512Z,2304.00
2019-05-17T09:32:41.280Z,2400.00
2019-05-17T09:33:41.279Z,2020.00
2019-05-17T09:34:41.295Z,2068.00
2019-05-17T09:35:41.352Z,2220.00
2019-05-17T09:36:41.256Z,1844.00
2019-05-17T09:37:41.773Z,1636.00
2019-05-17T09:38:41.228Z,1628.00
2019-05-17T09:39:41.209Z,1480.00
2019-05-17T09:40:41.210Z,1672.00
2019-05-17T09:41:41.287Z,1644.00
2019-05-17T09:42:41.520Z,1924.00
2019-05-17T09:43:41.195Z,1852.00
2019-05-17T09:44:41.153Z,1640.00
2019-05-17T09:45:41.170Z,1752.00
2019-05-17T09:46:41.144Z,1704.00
2019-05-17T09:47:41.140Z,1596.00
2019-05-17T09:48:41.114Z,1556.00
2019-05-17T09:49:41.108Z,1684.00
2019-05-17T09:50:44.886Z,1696.00
2019-05-17T09:51:41.080Z,1960.00
2019-05-17T09:52:41.069Z,1928.00
2019-05-17T09:53:41.079Z,1964.00
2019-05-17T09:54:45.154Z,1912.00
2019-05-17T09:55:41.129Z,1992.00
2019-05-17T09:56:41.333Z,2108.00
2019-05-17T09:57:41.249Z,2272.00
2019-05-17T09:58:41.023Z,2452.00
2019-05-17T09:59:41.033Z,2604.00
2019-05-17T10:00:40.992Z,2760.00
2019-05-17T10:01:40.987Z,3032.00
2019-05-17T10:02:41.042Z,3112.00
2019-05-17T10:03:40.970Z,2900.00
2019-05-17T10:04:40.957Z,2704.00
2019-05-17T10:05:40.960Z,2884.00
2019-05-17T10:06:40.936Z,2748.00
2019-05-17T10:07:40.914Z,2960.00
2019-05-17T10:08:40.900Z,3592.00
2019-05-17T10:09:40.871Z,3932.00
2019-05-17T10:10:40.891Z,3000.00
2019-05-17T10:11:40.867Z,2404.00
2019-05-17T10:12:40.835Z,2296.00
2019-05-17T10:13:40.833Z,2428.00
2019-05-17T10:14:40.826Z,2504.00
2019-05-17T10:15:41.192Z,2468.00
2019-05-17T10:16:40.824Z,2640.00
2019-05-17T10:17:40.839Z,2724.00
2019-05-17T10:18:40.796Z,3056.00
2019-05-17T10:19:40.773Z,3692.00
2019-05-17T10:20:40.798Z,3964.00
2019-05-17T10:21:40.837Z,4220.00
2019-05-17T10:22:40.752Z,4252.00
2019-05-17T10:23:40.894Z,3940.00
2019-05-17T10:24:42.420Z,3572.00
2019-05-17T10:25:40.702Z,2976.00
2019-05-17T10:26:40.688Z,2524.00
2019-05-17T10:27:40.982Z,2124.00
2019-05-17T10:28:40.667Z,2064.00
2019-05-17T10:29:40.650Z,2224.00
2019-05-17T10:30:40.638Z,2244.00
2019-05-17T10:31:40.653Z,2580.00
2019-05-17T10:32:41.142Z,3112.00
2019-05-17T10:33:40.606Z,3336.00
2019-05-17T10:34:40.614Z,3188.00
2019-05-17T10:35:40.989Z,3512.00
2019-05-17T10:36:40.590Z,3412.00
2019-05-17T10:37:43.623Z,2912.00
2019-05-17T10:38:40.555Z,2464.00
2019-05-17T10:39:41.689Z,1968.00
2019-05-17T10:40:41.129Z,1736.00
2019-05-17T10:41:40.799Z,1984.00
2019-05-17T10:42:40.507Z,2016.00
2019-05-17T10:43:40.510Z,2100.00
2019-05-17T10:44:47.051Z,2376.00
2019-05-17T10:46:02.491Z,2064.00
2019-05-17T10:47:02.492Z,1748.00
2019-05-17T10:48:02.473Z,1616.00
2019-05-17T10:49:02.493Z,1680.00
2019-05-17T10:50:02.455Z,1644.00
2019-05-17T10:51:02.481Z,1784.00
2019-05-17T10:52:02.472Z,2148.00
2019-05-17T10:53:02.481Z,2536.00
2019-05-17T10:54:04.492Z,2604.00
2019-05-17T10:55:02.398Z,2400.00
2019-05-17T10:56:02.389Z,2328.00
2019-05-17T10:57:02.423Z,2124.00
2019-05-17T10:58:02.423Z,2084.00
2019-05-17T10:59:02.377Z,1988.00
2019-05-17T11:00:02.359Z,1796.00
2019-05-17T11:01:02.350Z,1456.00
2019-05-17T11:02:02.325Z,1176.00
2019-05-17T11:03:02.326Z,1296.00
2019-05-17T11:04:02.322Z,1280.00
2019-05-17T11:05:02.299Z,1632.00
2019-05-17T11:06:02.302Z,1928.00
2019-05-17T11:07:02.269Z,2084.00
2019-05-17T11:08:02.253Z,1808.00
2019-05-17T11:09:02.248Z,1704.00
2019-05-17T11:10:02.274Z,1648.00
2019-05-17T11:11:02.230Z,1688.00
2019-05-17T11:12:02.241Z,1792.00
2019-05-17T11:13:02.224Z,1940.00
2019-05-17T11:14:02.260Z,1992.00
2019-05-17T11:15:10.874Z,2108.00
2019-05-17T11:16:24.597Z,2128.00
2019-05-17T11:17:24.579Z,2096.00
2019-05-17T11:18:24.578Z,2028.00
2019-05-17T11:19:24.555Z,1956.00
2019-05-17T11:20:24.541Z,1996.00
2019-05-17T11:21:24.541Z,1984.00
2019-05-17T11:22:24.539Z,2044.00
2019-05-17T11:23:24.509Z,2016.00
2019-05-17T11:24:24.495Z,2096.00
2019-05-17T11:25:24.500Z,2124.00
2019-05-17T11:26:24.478Z,2160.00
2019-05-17T11:27:24.458Z,2324.00
2019-05-17T11:28:24.445Z,2500.00
2019-05-17T11:29:24.443Z,2600.00
2019-05-17T11:30:24.447Z,2536.00
2019-05-17T11:31:24.419Z,2580.00
2019-05-17T11:32:24.402Z,2680.00
2019-05-17T11:33:24.390Z,2792.00
2019-05-17T11:34:25.615Z,2968.00
2019-05-17T11:35:24.872Z,3060.00
2019-05-17T11:36:24.367Z,3076.00
2019-05-17T11:37:24.369Z,3076.00
2019-05-17T11:38:24.343Z,3060.00
2019-05-17T11:39:24.320Z,3036.00
2019-05-17T11:40:24.325Z,3004.00
2019-05-17T11:41:24.295Z,2936.00
2019-05-17T11:42:24.298Z,2836.00
2019-05-17T11:43:24.313Z,2756.00
2019-05-17T11:44:24.484Z,2640.00
2019-05-17T11:45:27.895Z,2492.00
2019-05-17T11:46:56.841Z,2308.00
2019-05-17T11:47:56.932Z,2320.00
2019-05-17T11:48:57.112Z,2468.00
2019-05-17T11:49:56.829Z,2536.00
2019-05-17T11:50:56.805Z,2604.00
2019-05-17T11:51:56.811Z,2684.00
2019-05-17T11:52:56.780Z,2872.00
2019-05-17T11:53:56.828Z,3140.00
2019-05-17T11:54:56.753Z,3292.00
2019-05-17T11:55:56.756Z,3372.00
2019-05-17T11:56:56.738Z,3496.00
2019-05-17T11:57:56.733Z,3600.00
2019-05-17T11:58:56.848Z,3468.00
2019-05-17T11:59:56.708Z,3840.00
2019-05-17T12:00:56.686Z,4032.00
2019-05-17T12:01:56.692Z,4184.00
2019-05-17T12:02:56.653Z,4552.00
2019-05-17T12:03:56.679Z,4332.00
2019-05-17T12:04:56.707Z,4504.00
2019-05-17T12:05:56.640Z,4648.00
2019-05-17T12:06:56.615Z,4120.00
2019-05-17T12:07:56.607Z,3944.00
2019-05-17T12:08:56.604Z,3816.00
2019-05-17T12:09:56.588Z,3596.00
2019-05-17T12:10:56.609Z,3400.00
2019-05-17T12:11:56.556Z,3232.00
2019-05-17T12:12:56.551Z,3224.00
2019-05-17T12:13:56.535Z,3440.00
2019-05-17T12:14:56.538Z,3488.00
2019-05-17T12:15:56.517Z,3448.00
2019-05-17T12:16:56.507Z,3536.00
2019-05-17T12:17:56.529Z,3528.00
2019-05-17T12:18:56.491Z,3500.00
2019-05-17T12:19:56.480Z,3576.00
2019-05-17T12:20:56.475Z,3324.00
2019-05-17T12:21:56.451Z,3088.00
2019-05-17T12:22:56.430Z,3068.00
2019-05-17T12:23:56.431Z,2940.00
2019-05-17T12:24:56.424Z,2888.00
2019-05-17T12:25:56.413Z,3056.00
2019-05-17T12:26:56.384Z,2924.00
2019-05-17T12:27:56.393Z,2664.00
2019-05-17T12:28:56.379Z,2728.00
2019-05-17T12:29:56.368Z,2688.00
2019-05-17T12:30:56.344Z,2680.00
2019-05-17T12:31:56.354Z,2608.00
2019-05-17T12:32:59.336Z,2652.00
2019-05-17T12:33:56.310Z,2708.00
2019-05-17T12:34:56.499Z,2704.00
2019-05-17T12:35:56.289Z,2876.00
2019-05-17T12:36:56.288Z,2960.00
2019-05-17T12:37:56.281Z,3000.00
2019-05-17T12:38:56.259Z,3040.00
2019-05-17T12:39:56.245Z,2960.00
2019-05-17T12:40:56.226Z,2980.00
2019-05-17T12:41:56.234Z,2988.00
2019-05-17T12:42:56.225Z,2948.00
2019-05-17T12:43:56.203Z,2980.00
2019-05-17T12:44:56.196Z,3056.00
2019-05-17T12:46:00.488Z,2976.00
2019-05-17T12:46:56.159Z,2956.00
2019-05-17T12:47:56.155Z,2940.00
2019-05-17T12:48:56.143Z,2796.00
2019-05-17T12:49:56.133Z,2772.00
2019-05-17T12:50:56.137Z,2580.00
2019-05-17T12:51:56.112Z,2272.00
2019-05-17T12:52:56.113Z,2024.00
2019-05-17T12:53:56.085Z,2008.00
2019-05-17T12:54:56.079Z,1948.00
2019-05-17T12:55:59.057Z,1940.00
2019-05-17T12:56:56.047Z,1816.00
2019-05-17T12:57:56.042Z,1788.00
2019-05-17T12:58:56.031Z,1828.00
2019-05-17T12:59:56.033Z,1972.00
2019-05-17T13:00:56.016Z,2196.00
2019-05-17T13:01:55.998Z,2152.00
2019-05-17T13:02:56.001Z,2048.00
2019-05-17T13:03:55.982Z,2104.00
2019-05-17T13:04:55.974Z,2248.00
2019-05-17T13:05:55.960Z,2396.00
2019-05-17T13:06:55.949Z,2336.00
2019-05-17T13:07:55.936Z,2248.00
2019-05-17T13:08:55.986Z,2300.00
2019-05-17T13:09:56.109Z,2352.00
2019-05-17T13:10:55.886Z,2464.00
2019-05-17T13:11:55.873Z,2628.00
2019-05-17T13:12:56.076Z,2836.00
2019-05-17T13:13:55.880Z,2956.00
2019-05-17T13:15:55.828Z,3056.00
2019-05-17T13:16:55.827Z,3084.00
2019-05-17T13:18:55.813Z,3076.00
2019-05-17T13:19:55.802Z,2936.00
2019-05-17T13:20:55.799Z,2856.00
2019-05-17T13:21:55.777Z,2816.00
2019-05-17T13:22:55.771Z,2752.00
2019-05-17T13:23:55.755Z,2628.00
2019-05-17T13:24:55.759Z,2472.00
2019-05-17T13:25:55.750Z,2424.00
2019-05-17T13:26:55.719Z,2404.00
2019-05-17T13:27:55.725Z,2444.00
2019-05-17T13:28:55.686Z,2540.00
2019-05-17T13:29:55.730Z,2396.00
2019-05-17T13:30:55.691Z,2296.00
2019-05-17T13:31:55.657Z,2188.00
2019-05-17T13:32:55.637Z,2060.00
2019-05-17T13:33:55.648Z,1988.00
2019-05-17T13:34:55.612Z,1980.00
2019-05-17T13:35:55.601Z,2052.00
2019-05-17T13:36:55.606Z,2076.00
2019-05-17T13:37:55.607Z,2096.00
2019-05-17T13:38:55.582Z,2188.00
2019-05-17T13:39:55.568Z,2244.00
2019-05-17T13:40:55.572Z,2324.00
2019-05-17T13:41:55.548Z,2328.00
2019-05-17T13:42:55.525Z,2312.00
2019-05-17T13:43:55.546Z,2252.00
2019-05-17T13:44:55.530Z,2392.00
2019-05-17T13:45:55.539Z,2480.00
2019-05-17T13:46:55.551Z,2616.00
2019-05-17T13:47:55.485Z,2668.00
2019-05-17T13:48:55.466Z,2732.00
2019-05-17T13:49:55.451Z,2844.00
2019-05-17T13:50:55.437Z,2920.00
2019-05-17T13:51:55.422Z,2928.00
2019-05-17T13:52:55.449Z,2792.00
2019-05-17T13:53:55.401Z,2672.00
2019-05-17T13:54:55.401Z,2524.00
2019-05-17T13:55:55.384Z,2432.00
2019-05-17T13:56:55.388Z,2344.00
2019-05-17T13:57:55.357Z,2352.00
2019-05-17T13:58:55.358Z,2316.00
2019-05-17T14:00:55.328Z,2288.00
2019-05-17T14:01:55.317Z,2232.00
2019-05-17T14:02:55.299Z,2300.00
2019-05-17T14:03:55.299Z,2400.00
2019-05-17T14:04:55.283Z,2432.00
2019-05-17T14:05:55.274Z,2180.00
2019-05-17T14:06:55.262Z,2016.00
2019-05-17T14:07:55.249Z,1968.00
2019-05-17T14:08:55.229Z,1776.00
2019-05-17T14:09:55.222Z,1736.00
2019-05-17T14:10:55.213Z,1860.00
2019-05-17T14:11:55.216Z,1904.00
2019-05-17T14:12:55.190Z,1872.00
2019-05-17T14:13:55.247Z,1856.00
2019-05-17T14:14:55.174Z,1792.00
2019-05-17T14:15:55.151Z,1784.00
2019-05-17T14:16:55.139Z,1804.00
2019-05-17T14:17:55.145Z,1804.00
2019-05-17T14:18:55.131Z,1872.00
2019-05-17T14:19:55.123Z,1896.00
2019-05-17T14:20:55.105Z,1904.00
2019-05-17T14:21:55.248Z,1928.00
2019-05-17T14:23:55.073Z,1880.00
2019-05-17T14:24:55.079Z,1760.00
2019-05-17T14:25:55.050Z,1892.00
2019-05-17T14:26:55.037Z,1728.00
2019-05-17T14:28:55.010Z,1552.00
2019-05-17T14:29:54.996Z,1564.00
2019-05-17T14:30:54.985Z,1688.00
2019-05-17T14:31:54.988Z,1688.00
2019-05-17T14:32:54.967Z,1616.00
2019-05-17T14:33:54.952Z,1520.00
2019-05-17T14:34:54.949Z,1592.00
2019-05-17T14:35:54.935Z,1568.00
2019-05-17T14:36:54.927Z,1568.00
2019-05-17T14:37:55.011Z,1628.00
2019-05-17T14:38:54.911Z,1764.00
2019-05-17T14:39:54.902Z,1852.00
2019-05-17T14:41:10.162Z,1956.00
2019-05-17T14:42:16.481Z,1980.00
2019-05-17T14:43:16.475Z,1988.00
2019-05-17T14:44:16.476Z,2000.00
2019-05-17T14:45:16.472Z,2044.00
2019-05-17T14:46:16.450Z,2092.00
2019-05-17T14:47:16.445Z,2104.00
2019-05-17T14:48:16.427Z,2232.00
2019-05-17T14:49:16.412Z,2216.00
2019-05-17T14:50:16.412Z,2288.00
2019-05-17T14:51:16.459Z,2228.00
2019-05-17T14:52:16.376Z,2156.00
2019-05-17T14:53:16.370Z,2156.00
2019-05-17T14:54:16.353Z,1972.00
2019-05-17T14:55:16.333Z,2008.00
2019-05-17T14:56:16.330Z,2176.00
2019-05-17T14:57:16.312Z,2200.00
2019-05-17T14:58:16.328Z,2176.00
2019-05-17T14:59:16.322Z,2084.00
2019-05-17T15:15:09.514Z,1448.00
2019-05-17T15:17:08.503Z,1384.00
2019-05-17T15:19:08.476Z,1288.00
2019-05-17T15:20:08.462Z,1280.00
2019-05-17T15:21:08.460Z,1280.00
2019-05-17T15:22:08.455Z,1292.00
2019-05-17T15:23:08.431Z,1268.00
2019-05-17T15:24:08.432Z,1248.00
2019-05-17T15:25:08.421Z,1216.00
2019-05-17T15:26:08.393Z,1244.00
2019-05-17T15:27:08.390Z,1336.00
2019-05-17T15:28:08.363Z,1424.00
2019-05-17T15:29:08.361Z,1532.00
2019-05-17T15:30:08.379Z,1608.00
2019-05-17T15:31:08.330Z,1672.00
2019-05-17T15:32:08.326Z,1740.00
2019-05-17T15:33:08.322Z,1736.00
2019-05-17T15:34:08.324Z,1792.00
2019-05-17T15:35:08.300Z,1856.00
2019-05-17T15:36:08.304Z,1884.00
2019-05-17T15:37:08.270Z,1824.00
2019-05-17T15:38:11.041Z,1736.00
2019-05-17T15:39:08.247Z,1608.00
2019-05-17T15:40:08.250Z,1580.00
2019-05-17T15:42:08.233Z,1596.00
2019-05-17T15:43:08.207Z,1576.00
2019-05-17T15:44:08.197Z,1532.00
2019-05-17T15:45:08.182Z,1516.00
2019-05-17T15:46:08.166Z,1576.00
2019-05-17T15:48:08.171Z,1648.00
2019-05-17T15:49:08.145Z,1644.00
2019-05-17T15:50:08.131Z,1624.00
2019-05-17T15:51:08.130Z,1664.00
2019-05-17T15:52:08.102Z,1680.00
2019-05-17T15:53:08.090Z,1640.00
2019-05-17T15:54:08.086Z,1544.00
2019-05-17T15:55:08.072Z,1476.00
2019-05-17T15:56:08.056Z,1412.00
2019-05-17T15:57:08.063Z,1364.00
2019-05-17T15:58:08.034Z,1388.00
2019-05-17T15:59:08.020Z,1452.00
2019-05-17T16:00:08.036Z,1520.00
2019-05-17T16:01:07.997Z,1592.00
2019-05-17T16:02:07.993Z,1736.00
2019-05-17T16:03:08.012Z,1744.00
2019-05-17T16:04:07.970Z,1772.00
2019-05-17T16:05:07.983Z,1816.00
2019-05-17T16:06:07.944Z,1764.00
2019-05-17T16:07:07.935Z,1760.00
2019-05-17T16:09:07.909Z,1772.00
2019-05-17T16:10:07.906Z,1784.00
2019-05-17T16:11:07.893Z,1736.00
2019-05-17T16:12:07.886Z,1760.00
2019-05-17T16:13:07.877Z,1728.00
2019-05-17T16:14:07.856Z,1712.00
2019-05-17T16:15:07.867Z,1720.00
2019-05-17T16:16:07.845Z,1720.00
2019-05-17T16:17:07.846Z,1748.00
2019-05-17T16:19:07.803Z,1924.00
2019-05-17T16:20:07.799Z,2004.00
2019-05-17T16:21:07.780Z,1932.00
2019-05-17T16:22:07.865Z,1708.00
2019-05-17T16:26:07.722Z,1340.00
2019-05-17T16:27:07.720Z,1300.00
2019-05-17T16:28:07.707Z,1248.00
2019-05-17T16:29:07.684Z,1192.00
2019-05-17T16:31:07.678Z,1104.00
2019-05-17T16:32:07.682Z,1096.00
2019-05-17T16:33:07.650Z,1104.00
2019-05-17T16:34:07.641Z,1112.00
2019-05-17T16:35:07.622Z,1080.00
2019-05-17T16:39:08.458Z,996.00
2019-05-17T16:40:07.571Z,1012.00
2019-05-17T16:41:07.558Z,1052.00
2019-05-17T16:46:29.618Z,1012.00
2019-05-17T16:47:29.621Z,988.00
2019-05-17T16:48:29.601Z,988.00
2019-05-17T16:50:29.571Z,1016.00
2019-05-17T16:51:29.574Z,1044.00
2019-05-17T16:52:29.566Z,1052.00
2019-05-17T16:55:29.521Z,1084.00
2019-05-17T16:56:29.580Z,1112.00
2019-05-17T17:00:29.481Z,1016.00
2019-05-17T17:02:29.442Z,912.00
2019-05-17T17:03:43.208Z,884.00
2019-05-17T17:09:51.582Z,1020.00
2019-05-17T17:10:51.578Z,1052.00
2019-05-17T17:12:51.565Z,1104.00
2019-05-17T17:17:51.501Z,976.00
2019-05-17T17:22:51.551Z,1016.00
2019-05-17T17:23:51.445Z,1020.00
2019-05-17T17:26:51.391Z,1060.00
2019-05-17T17:27:51.395Z,1032.00
2019-05-17T17:28:51.375Z,980.00
2019-05-17T17:29:51.362Z,936.00
2019-05-17T17:37:51.267Z,644.00
2019-05-17T17:38:51.249Z,624.00
2019-05-17T17:42:51.205Z,616.00
2019-05-17T17:53:16.080Z,484.00
2019-05-17T17:54:16.012Z,484.00
2019-05-17T17:55:15.999Z,464.00
2019-05-17T18:00:15.937Z,416.00
2019-05-17T18:01:15.939Z,432.00
2019-05-17T18:06:15.879Z,400.00
2019-05-17T18:07:15.910Z,380.00
2019-05-17T18:08:15.847Z,360.00
2019-05-17T18:10:15.826Z,328.00
2019-05-17T18:11:15.817Z,312.00
2019-05-17T18:13:15.848Z,288.00
2019-05-17T18:14:15.776Z,280.00
2019-05-17T18:16:15.757Z,268.00
2019-05-17T18:21:15.712Z,252.00
2019-05-17T18:23:19.720Z,260.00
2019-05-17T18:24:38.057Z,264.00
2019-05-17T18:28:37.991Z,256.00
2019-05-17T18:30:37.983Z,256.00
2019-05-17T18:33:37.939Z,248.00
2019-05-17T18:36:38.578Z,232.00
2019-05-17T18:40:37.857Z,196.00
2019-05-17T18:41:37.851Z,184.00
2019-05-17T18:45:37.810Z,164.00
